Time;durP1;ratioP1;P1;durP2;ratioP2;P2;SDS_P1;SDS_P2;PMS_P1;PMS_P2;Temp;Humidity;BMP_temperature;BMP_pressure;BME280_temperature;BME280_humidity;BME280_pressure;Samples;Min_cycle;Max_cycle;Signal;HPM_P1;HPM_P2
2023/09/16 00:01:41;;;;;;;9.68;8.77;;;14.20;99.90;;;;;;5140384;27;20039;-77
2023/09/16 00:04:08;;;;;;;10.35;9.23;;;14.20;99.90;;;;;;5141189;27;20499;-82
2023/09/16 00:06:34;;;;;;;11.35;9.98;;;14.10;99.90;;;;;;5104442;27;20039;-79
2023/09/16 00:09:00;;;;;;;10.45;9.40;;;14.10;99.90;;;;;;5141671;27;20058;-78
2023/09/16 00:11:26;;;;;;;11.07;9.98;;;14.10;99.90;;;;;;5125265;27;20054;-77
2023/09/16 00:13:51;;;;;;;9.68;8.65;;;14.00;99.90;;;;;;5101741;27;20149;-80
2023/09/16 00:16:17;;;;;;;9.95;8.95;;;14.00;99.90;;;;;;5121435;27;20544;-74
2023/09/16 00:18:43;;;;;;;10.80;9.20;;;13.90;99.90;;;;;;5122306;27;20042;-75
2023/09/16 00:21:10;;;;;;;11.02;9.38;;;13.90;99.90;;;;;;5140038;27;20089;-77
2023/09/16 00:23:36;;;;;;;11.88;10.35;;;13.80;99.90;;;;;;5141680;27;20111;-80
2023/09/16 00:26:03;;;;;;;11.50;9.68;;;13.90;99.90;;;;;;5140350;27;20418;-74
2023/09/16 00:28:30;;;;;;;11.25;10.07;;;13.90;99.90;;;;;;5139353;27;20047;-78
2023/09/16 00:30:57;;;;;;;12.40;10.10;;;13.90;99.90;;;;;;5138735;27;20045;-76
2023/09/16 00:33:23;;;;;;;9.80;8.80;;;13.80;99.90;;;;;;5141845;27;20177;-78
2023/09/16 00:35:50;;;;;;;10.48;8.65;;;13.80;99.90;;;;;;5119347;27;20082;-76
2023/09/16 00:38:16;;;;;;;10.13;9.13;;;13.80;99.90;;;;;;5140647;27;20050;-76
2023/09/16 00:40:42;;;;;;;10.95;9.85;;;13.80;99.90;;;;;;5119053;27;20058;-74
2023/09/16 00:43:07;;;;;;;12.43;11.13;;;13.70;99.90;;;;;;5138558;27;20103;-75
2023/09/16 00:45:33;;;;;;;12.63;11.32;;;13.80;99.90;;;;;;5136559;27;20047;-75
2023/09/16 00:47:59;;;;;;;10.75;9.65;;;13.80;99.90;;;;;;5119502;27;20053;-77
2023/09/16 00:50:25;;;;;;;13.25;11.85;;;13.70;99.90;;;;;;5136548;27;20097;-76
2023/09/16 00:52:55;;;;;;;11.35;10.23;;;13.70;99.90;;;;;;5130496;27;20126;-75
2023/09/16 00:55:21;;;;;;;13.10;11.38;;;13.70;99.90;;;;;;5113559;27;20074;-76
2023/09/16 00:57:50;;;;;;;13.68;12.27;;;13.70;99.90;;;;;;5135242;27;20143;-74
2023/09/16 01:00:16;;;;;;;11.80;10.70;;;13.70;99.90;;;;;;5112603;27;20066;-76
2023/09/16 01:02:43;;;;;;;13.30;12.00;;;13.70;99.90;;;;;;5128153;27;20051;-75
2023/09/16 01:05:17;;;;;;;11.55;10.45;;;13.70;99.90;;;;;;5111472;27;20266;-75
2023/09/16 01:07:45;;;;;;;;;;;13.70;99.90;;;;;;5123122;27;20047;-74
2023/09/16 01:10:13;;;;;;;13.98;12.40;;;13.60;99.90;;;;;;5133248;27;20375;-75
2023/09/16 01:12:39;;;;;;;11.35;10.32;;;13.60;99.90;;;;;;5111873;27;20051;-75
2023/09/16 01:15:06;;;;;;;10.90;9.82;;;13.60;99.90;;;;;;5131772;27;20776;-75
2023/09/16 01:17:54;;;;;;;12.95;11.65;;;13.60;99.90;;;;;;5140228;27;20054;-75
2023/09/16 01:20:21;;;;;;;11.07;9.82;;;13.60;99.90;;;;;;5104134;27;20055;-76
2023/09/16 01:22:47;;;;;;;11.35;10.35;;;13.50;99.90;;;;;;5140241;27;20050;-74
2023/09/16 01:25:17;;;;;;;11.25;10.15;;;13.50;99.90;;;;;;5141894;27;20159;-78
2023/09/16 01:27:44;;;;;;;10.93;9.43;;;13.40;99.90;;;;;;5090058;27;20073;-75
2023/09/16 01:30:10;;;;;;;14.00;10.63;;;13.40;99.90;;;;;;5141682;27;20042;-76
2023/09/16 01:32:43;;;;;;;9.60;8.77;;;13.30;99.90;;;;;;5137200;27;20482;-75
2023/09/16 01:35:14;;;;;;;11.57;10.43;;;13.30;99.90;;;;;;5139833;27;20042;-77
2023/09/16 01:37:43;;;;;;;10.73;9.75;;;13.30;99.90;;;;;;5140229;27;20066;-78
2023/09/16 01:40:11;;;;;;;9.18;8.35;;;13.30;99.90;;;;;;5139586;27;20059;-80
2023/09/16 01:42:37;;;;;;;9.57;8.68;;;13.30;99.90;;;;;;5141155;27;20043;-77
2023/09/16 01:45:04;;;;;;;10.82;9.60;;;13.30;99.90;;;;;;5121779;27;20487;-74
2023/09/16 01:47:30;;;;;;;9.55;8.65;;;13.20;99.90;;;;;;5122009;27;20065;-79
2023/09/16 01:49:56;;;;;;;13.07;11.77;;;13.20;99.90;;;;;;5115603;27;20047;-78
2023/09/16 01:52:22;;;;;;;9.30;8.40;;;13.20;99.90;;;;;;5139446;27;20061;-76
2023/09/16 01:54:48;;;;;;;9.82;8.95;;;13.30;99.90;;;;;;5130775;27;20449;-75
2023/09/16 01:57:14;;;;;;;12.10;8.60;;;13.30;99.90;;;;;;5128212;27;20043;-74
2023/09/16 01:59:39;;;;;;;13.18;11.88;;;13.30;99.90;;;;;;5135788;27;20058;-77
2023/09/16 02:02:05;;;;;;;10.50;9.57;;;13.30;99.90;;;;;;5101692;27;20079;-75
2023/09/16 02:04:31;;;;;;;11.98;10.77;;;13.30;99.90;;;;;;5141146;27;20070;-77
2023/09/16 02:06:56;;;;;;;11.75;10.65;;;13.30;99.90;;;;;;5134792;27;20156;-76
2023/09/16 02:09:22;;;;;;;14.02;12.65;;;13.40;99.90;;;;;;5123098;27;20058;-75
2023/09/16 02:11:48;;;;;;;13.05;11.65;;;13.40;99.90;;;;;;5130181;27;20099;-76
2023/09/16 02:14:15;;;;;;;14.23;12.73;;;13.40;99.90;;;;;;5130332;27;20198;-75
2023/09/16 02:16:41;;;;;;;15.60;14.00;;;13.40;99.90;;;;;;5111707;27;20438;-78
2023/09/16 02:19:07;;;;;;;12.02;10.82;;;13.40;99.90;;;;;;5129717;27;20085;-79
2023/09/16 02:21:33;;;;;;;11.93;10.77;;;13.40;99.90;;;;;;5122883;27;20107;-74
2023/09/16 02:23:58;;;;;;;11.07;10.02;;;13.40;99.90;;;;;;5106743;27;20145;-76
2023/09/16 02:26:24;;;;;;;11.10;10.00;;;13.40;99.90;;;;;;5110367;27;20112;-77
2023/09/16 02:28:50;;;;;;;12.20;9.40;;;13.30;99.90;;;;;;5135973;27;20495;-76
2023/09/16 02:31:16;;;;;;;10.25;9.05;;;13.30;99.90;;;;;;5117510;27;20058;-76
2023/09/16 02:33:41;;;;;;;9.95;9.02;;;13.30;99.90;;;;;;5138807;27;20097;-78
2023/09/16 02:36:07;;;;;;;10.48;9.38;;;13.20;99.90;;;;;;5139262;27;20050;-76
2023/09/16 02:38:33;;;;;;;10.35;9.35;;;13.20;99.90;;;;;;5129177;27;20038;-74
2023/09/16 02:41:04;;;;;;;10.82;9.65;;;13.10;99.90;;;;;;5140750;27;20042;-78
2023/09/16 02:43:29;;;;;;;11.98;10.63;;;13.20;99.90;;;;;;5133322;27;20039;-77
2023/09/16 02:45:56;;;;;;;10.25;9.27;;;13.10;99.90;;;;;;5139159;27;20585;-76
2023/09/16 02:48:22;;;;;;;11.70;10.60;;;13.10;99.90;;;;;;5136930;27;20047;-76
2023/09/16 02:50:48;;;;;;;12.93;10.55;;;13.10;99.90;;;;;;5136622;27;20050;-74
2023/09/16 02:53:14;;;;;;;13.57;12.25;;;13.10;99.90;;;;;;5114346;27;20127;-75
2023/09/16 02:55:39;;;;;;;11.38;10.38;;;13.10;99.90;;;;;;5129687;27;20051;-78
2023/09/16 02:58:07;;;;;;;11.60;10.50;;;13.10;99.90;;;;;;5123434;27;20046;-75
2023/09/16 03:00:33;;;;;;;13.82;12.40;;;13.00;99.90;;;;;;5127675;27;20043;-76
2023/09/16 03:02:59;;;;;;;11.40;10.30;;;13.00;99.90;;;;;;5139609;27;20074;-75
2023/09/16 03:05:24;;;;;;;11.10;9.95;;;13.10;99.90;;;;;;5141837;27;20051;-77
2023/09/16 03:07:50;;;;;;;10.90;9.77;;;13.00;99.90;;;;;;5144626;27;20046;-77
2023/09/16 03:10:16;;;;;;;11.85;10.75;;;13.00;99.90;;;;;;5141902;27;20046;-75
2023/09/16 03:12:41;;;;;;;11.10;10.10;;;12.90;99.90;;;;;;5143138;27;20514;-77
2023/09/16 03:15:09;;;;;;;11.32;10.23;;;12.60;99.90;;;;;;5086633;27;20050;-77
2023/09/16 03:17:34;;;;;;;10.35;9.45;;;12.90;99.90;;;;;;5119528;27;20043;-74
2023/09/16 03:20:00;;;;;;;11.85;9.80;;;12.90;99.90;;;;;;5125456;27;20052;-78
2023/09/16 03:22:26;;;;;;;10.18;9.18;;;12.90;99.90;;;;;;5143888;27;20078;-76
2023/09/16 03:24:52;;;;;;;11.80;10.60;;;12.90;99.90;;;;;;5142406;27;20154;-77
2023/09/16 03:27:18;;;;;;;10.40;9.15;;;12.90;99.90;;;;;;5129027;27;20670;-74
2023/09/16 03:29:43;;;;;;;10.68;9.40;;;12.90;99.90;;;;;;5128932;27;20562;-77
2023/09/16 03:32:09;;;;;;;10.45;9.45;;;13.00;99.90;;;;;;5132062;27;20487;-78
2023/09/16 03:34:34;;;;;;;9.95;8.98;;;13.00;99.90;;;;;;5135388;27;20483;-75
2023/09/16 03:37:00;;;;;;;12.20;11.15;;;13.00;99.90;;;;;;5140232;27;20058;-76
2023/09/16 03:39:26;;;;;;;12.95;11.63;;;12.90;99.90;;;;;;5137606;27;20043;-75
2023/09/16 03:41:51;;;;;;;13.60;11.27;;;12.90;99.90;;;;;;5132706;27;20050;-75
2023/09/16 03:44:17;;;;;;;10.70;9.70;;;12.90;99.90;;;;;;5130244;27;20130;-76
2023/09/16 03:46:43;;;;;;;12.50;10.15;;;12.90;99.90;;;;;;5135955;27;20390;-76
2023/09/16 03:49:09;;;;;;;9.95;9.05;;;12.80;99.90;;;;;;5134875;27;20062;-76
2023/09/16 03:51:36;;;;;;;8.40;7.60;;;12.80;99.90;;;;;;5116441;27;20531;-74
2023/09/16 03:54:04;;;;;;;9.98;8.95;;;12.80;99.90;;;;;;5135915;27;20094;-76
2023/09/16 03:56:30;;;;;;;10.70;9.20;;;12.80;99.90;;;;;;5142484;27;20050;-76
2023/09/16 03:58:55;;;;;;;12.30;10.98;;;12.80;99.90;;;;;;5142265;27;20698;-75
2023/09/16 04:01:21;;;;;;;11.68;10.57;;;12.70;99.90;;;;;;5141290;27;20121;-75
2023/09/16 04:03:47;;;;;;;10.70;9.70;;;12.70;99.90;;;;;;5136987;27;20047;-78
2023/09/16 04:06:14;;;;;;;9.38;8.68;;;12.60;99.90;;;;;;5140352;27;20050;-78
2023/09/16 04:08:40;;;;;;;13.40;12.10;;;12.70;99.90;;;;;;5128293;27;20070;-75
2023/09/16 04:11:06;;;;;;;12.57;11.35;;;12.60;99.90;;;;;;5128728;27;20571;-75
2023/09/16 04:13:32;;;;;;;12.90;11.60;;;12.60;99.90;;;;;;5137181;27;20043;-76
2023/09/16 04:15:58;;;;;;;11.02;9.93;;;12.60;99.90;;;;;;5109283;27;20051;-77
2023/09/16 04:18:24;;;;;;;13.05;11.73;;;12.60;99.90;;;;;;5141765;27;20058;-74
2023/09/16 04:20:55;;;;;;;13.73;11.38;;;12.60;99.90;;;;;;5136197;27;20046;-78
2023/09/16 04:23:21;;;;;;;15.30;13.70;;;12.60;99.90;;;;;;5136123;27;20063;-75
2023/09/16 04:25:47;;;;;;;12.02;11.02;;;12.60;99.90;;;;;;5111711;27;20480;-76
2023/09/16 04:28:15;;;;;;;12.77;11.57;;;12.50;99.90;;;;;;5135681;27;20127;-75
2023/09/16 04:30:49;;;;;;;13.00;11.63;;;12.50;99.90;;;;;;5133327;27;20091;-76
2023/09/16 04:33:15;;;;;;;12.35;11.15;;;12.50;99.90;;;;;;5132050;27;20076;-76
2023/09/16 04:35:51;;;;;;;14.93;13.48;;;12.50;99.90;;;;;;5131139;27;20039;-76
2023/09/16 04:38:18;;;;;;;13.50;12.23;;;12.50;99.90;;;;;;5134483;27;20054;-76
2023/09/16 04:40:45;;;;;;;13.65;12.32;;;12.50;99.90;;;;;;5136478;27;20057;-77
2023/09/16 04:43:14;;;;;;;16.15;14.50;;;11.50;99.90;;;;;;5121673;27;20747;-75
2023/09/16 04:45:44;;;;;;;16.55;14.95;;;12.50;99.90;;;;;;5135156;27;20045;-77
2023/09/16 04:48:13;;;;;;;13.52;12.13;;;12.50;99.90;;;;;;5129023;27;20401;-78
2023/09/16 04:50:46;;;;;;;14.90;13.30;;;12.40;99.90;;;;;;5129907;27;20051;-77
2023/09/16 04:53:11;;;;;;;16.03;14.03;;;12.40;99.90;;;;;;5104749;27;20088;-76
2023/09/16 04:55:37;;;;;;;13.45;12.25;;;12.40;99.90;;;;;;5117102;27;20289;-75
2023/09/16 04:58:03;;;;;;;13.88;12.20;;;12.40;99.90;;;;;;5121481;27;20047;-76
2023/09/16 05:00:33;;;;;;;15.48;13.82;;;12.40;99.90;;;;;;5138765;27;20081;-78
2023/09/16 05:03:02;;;;;;;12.48;11.40;;;12.40;99.90;;;;;;5138126;27;20088;-76
2023/09/16 05:05:27;;;;;;;15.02;13.63;;;12.30;99.90;;;;;;5115234;27;20040;-75
2023/09/16 05:07:53;;;;;;;14.65;13.25;;;12.40;99.90;;;;;;5135467;27;20089;-75
2023/09/16 05:10:19;;;;;;;13.43;12.02;;;12.30;99.90;;;;;;5140092;27;20119;-78
2023/09/16 05:12:44;;;;;;;13.23;11.82;;;12.30;99.90;;;;;;5140411;27;21268;-79
2023/09/16 05:15:10;;;;;;;11.73;10.63;;;12.30;99.90;;;;;;5121162;27;20115;-78
2023/09/16 05:17:37;;;;;;;10.52;9.52;;;12.30;99.90;;;;;;5134149;27;20071;-78
2023/09/16 05:20:04;;;;;;;10.18;9.18;;;12.20;99.90;;;;;;5116941;27;20050;-76
2023/09/16 05:22:29;;;;;;;10.05;9.20;;;12.30;99.90;;;;;;5115838;27;20059;-77
2023/09/16 05:24:55;;;;;;;8.73;7.93;;;12.20;99.90;;;;;;5135123;27;20170;-76
2023/09/16 05:27:22;;;;;;;9.95;8.95;;;12.20;99.90;;;;;;5115513;27;20047;-79
2023/09/16 05:29:55;;;;;;;9.30;8.35;;;12.20;99.90;;;;;;5135459;27;20050;-76
2023/09/16 05:32:22;;;;;;;11.95;10.77;;;12.20;99.90;;;;;;5136498;27;20043;-77
2023/09/16 05:34:47;;;;;;;12.88;11.57;;;12.20;99.90;;;;;;5131712;27;20054;-77
2023/09/16 05:37:13;;;;;;;10.82;9.93;;;12.20;99.90;;;;;;5137566;27;20049;-79
2023/09/16 05:39:39;;;;;;;11.90;10.73;;;12.20;99.90;;;;;;5135837;27;20768;-75
2023/09/16 05:42:05;;;;;;;12.85;11.07;;;12.20;99.90;;;;;;5129927;27;20134;-78
2023/09/16 05:44:31;;;;;;;10.50;9.60;;;12.20;99.90;;;;;;5128096;27;20098;-76
2023/09/16 05:46:58;;;;;;;10.73;9.73;;;12.30;99.90;;;;;;5119676;27;20047;-76
2023/09/16 05:49:24;;;;;;;11.20;10.30;;;12.30;99.90;;;;;;5130709;27;20829;-78
2023/09/16 05:51:49;;;;;;;11.38;10.40;;;12.40;99.90;;;;;;5135066;27;20138;-78
2023/09/16 05:54:17;;;;;;;11.88;10.80;;;12.40;99.90;;;;;;5137084;27;20077;-80
2023/09/16 05:56:46;;;;;;;12.80;11.70;;;12.40;99.90;;;;;;5101581;27;20883;-79
2023/09/16 05:59:12;;;;;;;12.27;11.32;;;12.50;99.90;;;;;;5131052;27;20075;-78
2023/09/16 06:01:38;;;;;;;11.27;10.27;;;12.60;99.90;;;;;;5141216;27;20049;-77
2023/09/16 06:04:04;;;;;;;11.00;10.07;;;12.70;99.90;;;;;;5141704;27;20086;-75
2023/09/16 06:06:29;;;;;;;12.05;11.05;;;12.70;99.90;;;;;;5133609;27;20103;-80
2023/09/16 06:08:56;;;;;;;12.80;11.60;;;12.70;99.90;;;;;;5137296;27;20183;-76
2023/09/16 06:11:26;;;;;;;12.07;10.88;;;12.80;99.90;;;;;;5138393;27;20056;-78
2023/09/16 06:13:52;;;;;;;12.13;11.05;;;12.80;99.90;;;;;;5139664;27;20069;-77
2023/09/16 06:16:18;;;;;;;17.80;15.77;;;12.80;99.90;;;;;;5103663;27;20137;-75
2023/09/16 06:18:44;;;;;;;14.15;12.77;;;12.90;99.90;;;;;;5122708;27;20043;-79
2023/09/16 06:21:10;;;;;;;19.92;18.02;;;13.00;99.90;;;;;;5120270;27;20058;-78
2023/09/16 06:23:35;;;;;;;18.73;16.85;;;13.00;99.90;;;;;;5121829;27;20768;-76
2023/09/16 06:26:01;;;;;;;19.67;17.67;;;13.10;99.90;;;;;;5138178;27;20686;-76
2023/09/16 06:28:27;;;;;;;18.40;16.73;;;12.10;99.90;;;;;;5140529;27;20050;-76
2023/09/16 06:30:53;;;;;;;21.02;18.83;;;13.30;99.90;;;;;;5141528;27;20086;-77
2023/09/16 06:33:19;;;;;;;20.75;18.40;;;13.40;99.90;;;;;;5140839;27;20049;-77
2023/09/16 06:35:44;;;;;;;21.95;19.73;;;13.40;99.90;;;;;;5085643;27;20059;-80
2023/09/16 06:38:10;;;;;;;23.15;20.83;;;13.50;99.90;;;;;;5124991;27;20046;-76
2023/09/16 06:40:37;;;;;;;21.02;18.95;;;13.50;99.90;;;;;;5132038;27;20058;-79
2023/09/16 06:43:03;;;;;;;24.00;21.48;;;13.60;99.90;;;;;;5114719;27;20054;-76
2023/09/16 06:45:28;;;;;;;26.35;22.95;;;13.60;99.90;;;;;;5119594;27;20558;-78
2023/09/16 06:47:57;;;;;;;24.70;22.10;;;13.70;99.90;;;;;;5105504;27;20043;-80
2023/09/16 06:50:23;;;;;;;22.83;20.52;;;13.80;99.90;;;;;;5131530;27;20204;-78
2023/09/16 06:52:48;;;;;;;22.10;19.98;;;13.90;99.90;;;;;;5141710;27;20385;-77
2023/09/16 06:55:14;;;;;;;21.27;19.15;;;13.90;99.90;;;;;;5135779;27;20051;-76
2023/09/16 06:57:40;;;;;;;21.70;19.60;;;13.90;99.90;;;;;;5136507;27;20093;-77
2023/09/16 07:00:06;;;;;;;20.98;18.73;;;14.00;99.90;;;;;;5137826;27;20050;-76
2023/09/16 07:02:32;;;;;;;23.02;20.13;;;14.10;99.90;;;;;;5119989;27;20042;-77
2023/09/16 07:04:57;;;;;;;20.58;18.23;;;14.10;99.90;;;;;;5134667;27;20050;-75
2023/09/16 07:07:26;;;;;;;22.23;19.83;;;14.30;99.90;;;;;;5141810;27;20483;-75
2023/09/16 07:09:55;;;;;;;21.63;19.48;;;14.40;99.90;;;;;;5128513;27;20046;-76
2023/09/16 07:12:21;;;;;;;20.80;18.75;;;14.60;99.90;;;;;;5112357;27;20050;-76
2023/09/16 07:14:47;;;;;;;21.48;18.13;;;14.80;99.90;;;;;;5138573;27;20042;-77
2023/09/16 07:17:13;;;;;;;19.77;17.10;;;15.00;99.90;;;;;;5143681;27;20394;-77
2023/09/16 07:19:40;;;;;;;18.55;16.70;;;15.20;99.90;;;;;;5126738;27;20189;-76
2023/09/16 07:22:06;;;;;;;21.58;17.98;;;15.30;99.90;;;;;;5115207;27;20047;-79
2023/09/16 07:24:31;;;;;;;19.73;17.23;;;15.40;99.90;;;;;;5123668;27;20049;-76
2023/09/16 07:26:57;;;;;;;19.35;17.50;;;15.60;99.90;;;;;;5141336;27;20046;-76
2023/09/16 07:29:23;;;;;;;20.63;15.85;;;15.80;99.90;;;;;;5132475;27;20058;-77
2023/09/16 07:31:49;;;;;;;17.42;15.73;;;16.10;99.90;;;;;;5123738;27;20046;-77
2023/09/16 07:34:19;;;;;;;16.40;14.73;;;17.10;99.90;;;;;;5136693;27;20170;-78
2023/09/16 07:36:46;;;;;;;15.82;13.75;;;18.50;99.90;;;;;;5128606;27;20066;-77
2023/09/16 07:39:12;;;;;;;13.60;12.20;;;20.00;99.90;;;;;;5142007;27;20051;-77
2023/09/16 07:41:38;;;;;;;13.63;12.30;;;21.10;99.90;;;;;;5134092;27;20046;-77
2023/09/16 07:44:05;;;;;;;14.75;13.25;;;21.90;99.90;;;;;;5144311;27;20061;-77
2023/09/16 07:46:30;;;;;;;13.80;12.35;;;22.50;99.90;;;;;;5106616;27;20300;-77
2023/09/16 07:48:56;;;;;;;14.30;12.32;;;23.10;99.90;;;;;;5137075;27;20479;-78
2023/09/16 07:51:22;;;;;;;14.27;12.50;;;23.60;99.90;;;;;;5118597;27;20195;-79
2023/09/16 07:53:47;;;;;;;12.52;11.25;;;23.70;99.90;;;;;;5130418;27;20409;-77
2023/09/16 07:56:16;;;;;;;13.52;11.93;;;23.50;99.90;;;;;;5137750;27;20050;-78
2023/09/16 07:58:41;;;;;;;13.50;11.23;;;22.80;99.90;;;;;;5137996;27;20042;-75
2023/09/16 08:08:54;;;;;;;12.18;10.98;;;20.60;99.90;;;;;;5635717;22;20723;-72
2023/09/16 08:11:20;;;;;;;13.95;12.45;;;20.50;99.90;;;;;;5032607;28;20098;-70
2023/09/16 08:13:46;;;;;;;12.77;11.48;;;20.30;99.90;;;;;;5032970;28;20081;-70
2023/09/16 08:16:12;;;;;;;12.75;11.48;;;20.20;99.90;;;;;;5032424;28;20045;-71
2023/09/16 08:18:38;;;;;;;13.10;11.73;;;20.20;99.90;;;;;;5033104;28;20045;-71
2023/09/16 08:21:03;;;;;;;13.15;11.85;;;20.60;99.90;;;;;;5032150;28;20057;-72
2023/09/16 08:23:29;;;;;;;11.88;10.60;;;21.20;99.90;;;;;;5033337;28;20128;-71
2023/09/16 08:25:55;;;;;;;12.93;11.60;;;22.50;99.90;;;;;;5033286;28;20042;-70
2023/09/16 08:28:20;;;;;;;13.27;11.98;;;23.70;99.90;;;;;;5033048;28;20037;-71
2023/09/16 08:30:46;;;;;;;13.02;10.68;;;24.30;99.90;;;;;;5033215;28;20061;-71
2023/09/16 08:33:12;;;;;;;10.80;9.50;;;25.00;99.90;;;;;;5032936;28;20115;-71
2023/09/16 08:35:37;;;;;;;12.00;10.20;;;24.60;99.90;;;;;;5032997;28;20068;-71
2023/09/16 08:38:03;;;;;;;11.18;9.80;;;23.80;99.90;;;;;;5031875;28;20049;-71
2023/09/16 08:40:32;;;;;;;12.48;10.88;;;23.10;99.90;;;;;;5033119;28;20055;-71
2023/09/16 08:43:18;;;;;;;11.98;10.35;;;22.60;99.90;;;;;;5031817;28;20464;-71
2023/09/16 08:45:47;;;;;;;11.95;10.80;;;22.20;99.90;;;;;;5031708;28;20049;-71
2023/09/16 08:48:17;;;;;;;12.95;9.80;;;21.90;99.90;;;;;;5033213;28;20116;-72
2023/09/16 08:50:43;;;;;;;12.05;9.98;;;21.90;99.90;;;;;;5032743;28;20057;-72
2023/09/16 08:53:12;;;;;;;10.73;9.38;;;22.90;99.90;;;;;;5031609;28;20055;-70
2023/09/16 08:55:38;;;;;;;11.23;10.00;;;23.70;99.90;;;;;;5032732;28;20492;-72
2023/09/16 08:58:11;;;;;;;10.13;9.10;;;24.90;99.90;;;;;;5031801;28;20077;-71
2023/09/16 09:00:37;;;;;;;11.95;10.15;;;25.40;99.20;;;;;;5032109;28;20056;-70
2023/09/16 09:03:04;;;;;;;10.82;9.73;;;25.60;99.10;;;;;;5031480;28;20058;-70
2023/09/16 09:05:35;;;;;;;10.88;9.75;;;26.00;98.70;;;;;;5032631;28;20046;-72
2023/09/16 09:08:01;;;;;;;8.77;7.88;;;26.30;98.20;;;;;;5032430;28;20046;-70
2023/09/16 09:10:27;;;;;;;11.15;8.45;;;27.20;97.70;;;;;;5033134;28;20083;-70
2023/09/16 09:12:53;;;;;;;12.98;9.57;;;27.80;97.00;;;;;;5032423;28;20059;-70
2023/09/16 09:15:20;;;;;;;8.63;7.82;;;27.30;96.90;;;;;;5032534;28;20481;-70
2023/09/16 09:17:56;;;;;;;11.20;9.05;;;27.10;96.80;;;;;;5032603;28;20049;-70
2023/09/16 09:20:26;;;;;;;8.35;7.55;;;26.90;96.70;;;;;;5033554;28;20084;-70
2023/09/16 09:22:53;;;;;;;8.75;7.75;;;27.50;96.20;;;;;;5033726;28;20049;-70
2023/09/16 09:25:26;;;;;;;10.55;8.32;;;28.40;96.60;;;;;;5033233;28;20057;-70
2023/09/16 09:27:54;;;;;;;10.05;8.18;;;28.80;95.40;;;;;;5034102;28;20522;-71
2023/09/16 09:30:24;;;;;;;10.15;7.55;;;28.80;95.50;;;;;;5037882;28;20496;-71
2023/09/16 09:32:50;;;;;;;9.05;6.05;;;28.50;94.80;;;;;;5035738;28;20046;-71
2023/09/16 09:35:16;;;;;;;7.68;6.90;;;28.50;94.50;;;;;;5035419;28;20486;-71
2023/09/16 09:37:42;;;;;;;8.65;7.25;;;28.90;94.10;;;;;;5034978;28;20046;-70
2023/09/16 09:40:12;;;;;;;6.93;6.22;;;28.90;93.70;;;;;;5036134;28;20037;-71
2023/09/16 09:42:40;;;;;;;7.18;6.45;;;29.00;92.60;;;;;;5036156;28;20159;-70
2023/09/16 09:45:06;;;;;;;8.82;7.10;;;29.20;93.20;;;;;;5036228;28;20549;-70
2023/09/16 09:47:34;;;;;;;7.93;7.05;;;29.40;93.10;;;;;;5035728;28;20045;-70
2023/09/16 09:50:00;;;;;;;7.78;6.80;;;29.70;92.90;;;;;;5035817;28;20053;-70
2023/09/16 09:52:26;;;;;;;7.82;6.32;;;29.60;92.20;;;;;;5036167;28;20069;-70
2023/09/16 09:54:53;;;;;;;6.90;5.65;;;29.80;92.10;;;;;;5035952;28;20473;-70
2023/09/16 09:57:19;;;;;;;5.90;5.15;;;29.90;91.80;;;;;;5035766;28;20128;-70
2023/09/16 09:59:46;;;;;;;7.50;5.68;;;29.90;91.30;;;;;;5036295;28;20037;-70
2023/09/16 10:02:11;;;;;;;7.68;6.65;;;29.20;90.70;;;;;;5034421;28;20092;-70
2023/09/16 10:04:37;;;;;;;6.72;5.55;;;28.70;90.80;;;;;;5035429;28;20087;-70
2023/09/16 10:07:04;;;;;;;7.97;5.25;;;28.90;91.30;;;;;;5035634;28;20042;-70
2023/09/16 10:09:30;;;;;;;4.72;4.25;;;29.00;91.30;;;;;;5035625;28;20069;-70
2023/09/16 10:11:56;;;;;;;8.10;5.63;;;29.00;90.80;;;;;;5035094;28;20523;-70
2023/09/16 10:14:22;;;;;;;6.85;5.22;;;29.00;90.90;;;;;;5035905;28;20048;-70
2023/09/16 10:16:48;;;;;;;6.10;5.50;;;29.00;91.00;;;;;;5035311;28;20132;-71
2023/09/16 10:19:15;;;;;;;6.20;5.18;;;29.20;91.10;;;;;;5035872;28;20137;-71
2023/09/16 10:21:41;;;;;;;5.20;4.70;;;29.20;91.10;;;;;;5035500;28;20136;-70
2023/09/16 10:24:10;;;;;;;6.47;5.50;;;29.60;90.70;;;;;;5035372;28;20136;-71
2023/09/16 10:26:36;;;;;;;6.57;5.93;;;29.90;90.70;;;;;;5035671;28;20449;-71
2023/09/16 10:29:03;;;;;;;7.78;5.53;;;30.30;89.30;;;;;;5035388;28;20057;-70
2023/09/16 10:31:30;;;;;;;5.80;5.20;;;29.60;90.40;;;;;;5034103;28;20049;-70
2023/09/16 10:33:56;;;;;;;6.47;5.40;;;29.40;90.90;;;;;;5035494;28;20051;-71
2023/09/16 10:36:23;;;;;;;5.75;5.00;;;30.00;90.90;;;;;;5035339;28;20120;-71
2023/09/16 10:38:50;;;;;;;5.70;5.10;;;29.80;90.40;;;;;;5034958;28;20133;-70
2023/09/16 10:41:16;;;;;;;7.20;5.75;;;29.40;90.50;;;;;;5034356;28;20060;-70
2023/09/16 10:43:46;;;;;;;6.95;5.13;;;28.40;90.90;;;;;;5035553;28;20064;-70
2023/09/16 10:46:13;;;;;;;6.38;5.72;;;27.40;91.70;;;;;;5035608;28;20053;-71
2023/09/16 10:48:38;;;;;;;6.60;5.80;;;26.50;92.20;;;;;;5034911;28;20053;-71
2023/09/16 10:51:13;;;;;;;10.75;7.50;;;25.70;92.60;;;;;;5034418;28;20049;-70
2023/09/16 10:53:40;;;;;;;6.55;5.85;;;25.30;92.70;;;;;;5035027;28;20053;-71
2023/09/16 10:56:09;;;;;;;6.85;5.70;;;24.80;93.20;;;;;;5034330;28;20056;-71
2023/09/16 10:58:48;;;;;;;7.15;5.95;;;24.60;93.50;;;;;;5035244;28;20038;-70
2023/09/16 11:01:26;;;;;;;6.28;5.68;;;24.40;93.50;;;;;;5034752;28;20045;-70
2023/09/16 11:03:55;;;;;;;8.98;6.15;;;24.30;94.00;;;;;;5034226;28;20124;-70
2023/09/16 11:06:21;;;;;;;9.35;5.97;;;24.10;94.00;;;;;;5033801;28;20446;-70
2023/09/16 11:08:47;;;;;;;7.40;6.10;;;24.00;93.90;;;;;;5034676;28;20063;-70
2023/09/16 11:11:13;;;;;;;9.68;7.30;;;23.80;94.00;;;;;;5035007;28;20045;-70
2023/09/16 11:13:40;;;;;;;7.40;5.97;;;23.80;94.20;;;;;;5034789;28;20091;-70
2023/09/16 11:16:10;;;;;;;6.97;5.30;;;23.80;94.00;;;;;;5034788;28;20053;-71
2023/09/16 11:18:40;;;;;;;7.45;5.35;;;23.90;94.10;;;;;;5034363;28;20049;-70
2023/09/16 11:21:05;;;;;;;8.93;5.90;;;23.90;93.90;;;;;;5034356;28;20060;-72
2023/09/16 11:23:31;;;;;;;6.20;5.30;;;23.90;94.20;;;;;;5034780;28;20045;-70
2023/09/16 11:25:59;;;;;;;8.40;6.25;;;24.00;94.20;;;;;;5034529;28;20452;-71
2023/09/16 11:28:25;;;;;;;6.32;5.13;;;23.90;94.10;;;;;;5034278;28;20052;-71
2023/09/16 11:31:00;;;;;;;5.70;4.95;;;24.00;94.10;;;;;;5034210;28;20045;-71
2023/09/16 11:33:25;;;;;;;7.78;4.97;;;24.00;94.00;;;;;;5033959;28;20077;-71
2023/09/16 11:36:17;;;;;;;5.78;5.28;;;24.00;93.90;;;;;;5034537;28;20099;-71
2023/09/16 11:39:18;;;;;;;5.70;4.80;;;24.10;93.90;;;;;;5032947;28;20042;-70
2023/09/16 11:41:45;;;;;;;5.68;5.05;;;24.30;93.60;;;;;;5022889;28;20061;-71
2023/09/16 11:44:12;;;;;;;4.97;4.47;;;24.60;93.70;;;;;;5032752;28;20052;-71
2023/09/16 11:46:39;;;;;;;5.47;4.95;;;24.50;93.40;;;;;;5034490;28;20073;-70
2023/09/16 11:49:05;;;;;;;6.65;5.72;;;24.50;93.30;;;;;;5033783;28;20056;-70
2023/09/16 11:51:36;;;;;;;5.88;4.78;;;24.50;93.20;;;;;;5032951;28;20049;-70
2023/09/16 11:54:03;;;;;;;5.15;4.50;;;24.70;93.10;;;;;;5033772;28;20059;-70
2023/09/16 11:56:30;;;;;;;6.05;5.03;;;24.60;93.30;;;;;;5033723;28;20045;-71
2023/09/16 11:58:58;;;;;;;6.60;4.53;;;24.40;93.30;;;;;;5033933;28;20124;-69
2023/09/16 12:01:29;;;;;;;4.95;3.88;;;24.50;93.10;;;;;;5033883;28;20050;-70
2023/09/16 12:03:59;;;;;;;5.30;3.60;;;24.40;92.70;;;;;;5032496;28;20464;-70
2023/09/16 12:06:25;;;;;;;7.45;5.80;;;24.40;93.00;;;;;;5032972;28;20045;-71
2023/09/16 12:08:56;;;;;;;5.22;4.40;;;24.30;93.00;;;;;;5032384;28;20057;-70
2023/09/16 12:11:23;;;;;;;6.85;4.22;;;24.40;93.20;;;;;;5033747;28;20136;-71
2023/09/16 12:13:49;;;;;;;6.40;4.40;;;24.40;93.10;;;;;;5033923;28;20057;-71
2023/09/16 12:16:15;;;;;;;5.10;4.20;;;24.30;93.30;;;;;;5033318;28;20534;-70
2023/09/16 12:18:43;;;;;;;4.70;4.13;;;24.40;93.60;;;;;;5031963;28;20099;-70
2023/09/16 12:21:09;;;;;;;6.07;5.15;;;24.40;93.60;;;;;;5016188;28;20135;-72
2023/09/16 12:23:38;;;;;;;5.45;4.95;;;24.30;93.20;;;;;;5034006;28;20049;-70
2023/09/16 12:26:08;;;;;;;3.72;3.42;;;24.40;93.20;;;;;;5033782;28;20049;-70
2023/09/16 12:28:34;;;;;;;5.25;4.00;;;24.40;93.40;;;;;;5033716;28;20045;-70
2023/09/16 12:31:00;;;;;;;7.47;5.20;;;24.40;93.70;;;;;;5032997;28;20402;-69
2023/09/16 12:33:44;;;;;;;5.68;4.53;;;24.30;93.60;;;;;;5032945;28;20049;-70
2023/09/16 12:36:17;;;;;;;3.97;3.28;;;24.30;93.20;;;;;;5033135;28;20049;-70
2023/09/16 12:38:44;;;;;;;7.18;3.03;;;24.20;93.80;;;;;;5031476;28;20042;-70
2023/09/16 12:41:12;;;;;;;4.30;3.25;;;24.10;92.50;;;;;;5033199;28;20129;-70
2023/09/16 12:43:39;;;;;;;4.65;2.75;;;24.10;92.30;;;;;;5033205;28;20050;-72